Station Historical Data
Daily Summary for February 26, 2018 Units:  English    Metric   Both
« Previous Day
Next Day »
Daily Weekly Monthly Yearly Custom
  High: Low: Average:
Temperature: 40.8 °F 30.8 °F 35.4 °F
Dew Point: 32.6 °F 25.1 °F 29 °F
Humidity: 83% 66% 77%
Wind Speed: 19.0mph 0.0mph 6.2mph
Wind Gust: 20.0mph - -
Wind- - WSW
Pressure: 30.32 in 30.06 in -
Precipitation: 0.00 in    
Historical Graphs
 
 
Tabular Data for February 26, 2018
Time Temperature Dew Point Pressure Wind Wind Speed Wind Gust Humidity Rainfall Rate (Hourly)
00:04 34.8 °F 29.9 °F 30.06 in SW 5.0 mph 13.0 mph 82% 0.00 in
00:09 34.8 °F 29.9 °F 30.07 in SW 8.0 mph 15.0 mph 82% 0.00 in
00:14 34.8 °F 29.9 °F 30.07 in SW 8.0 mph 16.0 mph 82% 0.00 in
00:19 35.0 °F 30.1 °F 30.07 in SW 8.0 mph 18.0 mph 82% 0.00 in
00:24 34.9 °F 29.7 °F 30.07 in SW 8.0 mph 18.0 mph 81% 0.00 in
00:29 35.0 °F 29.8 °F 30.07 in SW 7.0 mph 13.0 mph 81% 0.00 in
00:34 34.9 °F 29.7 °F 30.07 in WSW 8.0 mph 14.0 mph 81% 0.00 in
00:39 34.9 °F 29.7 °F 30.07 in SW 6.0 mph 14.0 mph 81% 0.00 in
00:44 34.9 °F 29.7 °F 30.07 in WSW 11.0 mph 16.0 mph 81% 0.00 in
00:49 35.0 °F 29.8 °F 30.07 in SW 12.0 mph 17.0 mph 81% 0.00 in
00:54 35.1 °F 29.9 °F 30.07 in West 6.0 mph 17.0 mph 81% 0.00 in
00:59 35.1 °F 29.6 °F 30.08 in WSW 10.0 mph 15.0 mph 80% 0.00 in
01:04 35.0 °F 29.5 °F 30.07 in West 10.0 mph 15.0 mph 80% 0.00 in
01:09 35.0 °F 29.5 °F 30.08 in WSW 8.0 mph 15.0 mph 80% 0.00 in
01:14 35.0 °F 29.5 °F 30.08 in WSW 9.0 mph 18.0 mph 80% 0.00 in
01:19 35.0 °F 29.5 °F 30.08 in WSW 9.0 mph 18.0 mph 80% 0.00 in
01:24 35.0 °F 29.5 °F 30.08 in WSW 8.0 mph 15.0 mph 80% 0.00 in
01:29 34.9 °F 29.4 °F 30.08 in WSW 6.0 mph 15.0 mph 80% 0.00 in
01:34 34.9 °F 29.4 °F 30.09 in SW 4.0 mph 15.0 mph 80% 0.00 in
01:39 35.0 °F 29.5 °F 30.09 in SW 8.0 mph 16.0 mph 80% 0.00 in
01:44 35.0 °F 29.5 °F 30.08 in WSW 5.0 mph 17.0 mph 80% 0.00 in
01:49 34.9 °F 29.4 °F 30.08 in WSW 9.0 mph 14.0 mph 80% 0.00 in
01:54 34.9 °F 29.4 °F 30.09 in SW 19.0 mph 19.0 mph 80% 0.00 in
01:59 34.9 °F 29.4 °F 30.09 in SW 7.0 mph 19.0 mph 80% 0.00 in
02:04 34.8 °F 29.3 °F 30.09 in SW 9.0 mph 19.0 mph 80% 0.00 in
02:09 34.8 °F 29.3 °F 30.09 in WSW 11.0 mph 16.0 mph 80% 0.00 in
02:14 34.8 °F 29.3 °F 30.09 in SW 8.0 mph 16.0 mph 80% 0.00 in
02:19 34.8 °F 29.3 °F 30.09 in SW 10.0 mph 15.0 mph 80% 0.00 in
02:24 34.7 °F 29.2 °F 30.09 in SW 7.0 mph 18.0 mph 80% 0.00 in
02:29 34.7 °F 29.2 °F 30.08 in SW 6.0 mph 13.0 mph 80% 0.00 in
02:34 34.6 °F 29.1 °F 30.08 in SW 8.0 mph 14.0 mph 80% 0.00 in
02:39 34.6 °F 29.1 °F 30.08 in SW 7.0 mph 14.0 mph 80% 0.00 in
02:44 34.6 °F 29.4 °F 30.08 in SW 7.0 mph 13.0 mph 81% 0.00 in
02:49 34.6 °F 29.4 °F 30.08 in SW 8.0 mph 14.0 mph 81% 0.00 in
02:54 34.6 °F 29.4 °F 30.08 in West 4.0 mph 15.0 mph 81% 0.00 in
02:59 34.6 °F 29.4 °F 30.08 in WSW 8.0 mph 14.0 mph 81% 0.00 in
03:04 34.5 °F 29.3 °F 30.08 in SW 11.0 mph 14.0 mph 81% 0.00 in
03:09 34.5 °F 29.3 °F 30.08 in SW 7.0 mph 13.0 mph 81% 0.00 in
03:14 34.4 °F 29.2 °F 30.08 in WSW 3.0 mph 13.0 mph 81% 0.00 in
03:19 34.4 °F 28.9 °F 30.08 in WSW 5.0 mph 15.0 mph 80% 0.00 in
03:24 34.3 °F 29.1 °F 30.08 in WSW 5.0 mph 10.0 mph 81% 0.00 in
03:29 34.3 °F 29.1 °F 30.08 in SW 6.0 mph 12.0 mph 81% 0.00 in
03:34 34.3 °F 29.1 °F 30.08 in WSW 6.0 mph 12.0 mph 81% 0.00 in
03:39 34.3 °F 29.1 °F 30.08 in SW 6.0 mph 15.0 mph 81% 0.00 in
03:44 34.2 °F 29.0 °F 30.08 in SW 7.0 mph 15.0 mph 81% 0.00 in
03:54 34.0 °F 28.8 °F 30.09 in WSW 7.0 mph 16.0 mph 81% 0.00 in
03:59 33.9 °F 28.7 °F 30.10 in WSW 6.0 mph 16.0 mph 81% 0.00 in
04:04 33.9 °F 29.0 °F 30.10 in WSW 7.0 mph 14.0 mph 82% 0.00 in
04:09 33.8 °F 28.9 °F 30.09 in WSW 7.0 mph 14.0 mph 82% 0.00 in
04:14 33.7 °F 28.8 °F 30.10 in SW 6.0 mph 12.0 mph 82% 0.00 in
04:19 33.7 °F 28.8 °F 30.10 in SW 7.0 mph 12.0 mph 82% 0.00 in
04:29 33.5 °F 28.6 °F 30.10 in SW 6.0 mph 13.0 mph 82% 0.00 in
04:34 33.5 °F 28.9 °F 30.10 in SW 7.0 mph 14.0 mph 83% 0.00 in
04:39 33.5 °F 28.9 °F 30.10 in WSW 8.0 mph 10.0 mph 83% 0.00 in
04:44 33.4 °F 28.8 °F 30.11 in SW 3.0 mph 10.0 mph 83% 0.00 in
04:49 33.3 °F 28.4 °F 30.11 in West 4.0 mph 10.0 mph 82% 0.00 in
04:54 33.4 °F 28.8 °F 30.11 in WSW 6.0 mph 11.0 mph 83% 0.00 in
04:59 33.5 °F 28.9 °F 30.11 in WSW 7.0 mph 17.0 mph 83% 0.00 in
05:04 33.6 °F 28.7 °F 30.11 in WSW 7.0 mph 17.0 mph 82% 0.00 in
05:09 33.7 °F 28.8 °F 30.11 in SSW 11.0 mph 12.0 mph 82% 0.00 in
05:14 33.9 °F 29.0 °F 30.11 in SW 9.0 mph 13.0 mph 82% 0.00 in
05:19 33.9 °F 29.0 °F 30.12 in WSW 6.0 mph 12.0 mph 82% 0.00 in
05:24 34.1 °F 28.9 °F 30.12 in WSW 7.0 mph 13.0 mph 81% 0.00 in
05:29 34.0 °F 28.8 °F 30.12 in WSW 7.0 mph 13.0 mph 81% 0.00 in
05:34 33.8 °F 28.6 °F 30.12 in WSW 6.0 mph 12.0 mph 81% 0.00 in
05:39 33.6 °F 28.4 °F 30.12 in WSW 4.0 mph 8.0 mph 81% 0.00 in
05:44 33.4 °F 28.2 °F 30.12 in WSW 2.0 mph 8.0 mph 81% 0.00 in
05:49 33.3 °F 28.1 °F 30.13 in WSW 3.0 mph 12.0 mph 81% 0.00 in
05:54 33.2 °F 28.3 °F 30.13 in WSW 5.0 mph 12.0 mph 82% 0.00 in
05:59 33.1 °F 28.2 °F 30.12 in WSW 4.0 mph 8.0 mph 82% 0.00 in
06:04 33.0 °F 28.1 °F 30.13 in WSW 1.0 mph 8.0 mph 82% 0.00 in
06:09 32.8 °F 27.9 °F 30.13 in SW 5.0 mph 7.0 mph 82% 0.00 in
06:14 32.7 °F 27.8 °F 30.13 in West 2.0 mph 7.0 mph 82% 0.00 in
06:19 32.6 °F 27.7 °F 30.13 in SW 3.0 mph 8.0 mph 82% 0.00 in
06:24 32.7 °F 27.8 °F 30.14 in SW 4.0 mph 11.0 mph 82% 0.00 in
06:29 32.6 °F 27.7 °F 30.14 in West 6.0 mph 10.0 mph 82% 0.00 in
06:34 32.7 °F 27.8 °F 30.14 in SSW 6.0 mph 8.0 mph 82% 0.00 in
06:39 32.6 °F 27.7 °F 30.14 in SW 3.0 mph 7.0 mph 82% 0.00 in
06:44 32.6 °F 27.7 °F 30.14 in West 5.0 mph 9.0 mph 82% 0.00 in
06:49 32.7 °F 27.8 °F 30.15 in SW 6.0 mph 11.0 mph 82% 0.00 in
06:54 32.6 °F 27.7 °F 30.15 in WSW 3.0 mph 10.0 mph 82% 0.00 in
06:59 32.6 °F 27.7 °F 30.14 in WSW 6.0 mph 11.0 mph 82% 0.00 in
07:04 32.6 °F 27.7 °F 30.15 in SW 6.0 mph 11.0 mph 82% 0.00 in
07:09 32.5 °F 27.9 °F 30.15 in WSW 5.0 mph 11.0 mph 83% 0.00 in
07:14 32.5 °F 27.9 °F 30.15 in WSW 5.0 mph 13.0 mph 83% 0.00 in
07:19 32.5 °F 27.9 °F 30.15 in WSW 5.0 mph 9.0 mph 83% 0.00 in
07:29 32.6 °F 28.0 °F 30.16 in West 7.0 mph 13.0 mph 83% 0.00 in
07:34 32.7 °F 28.1 °F 30.16 in SW 6.0 mph 11.0 mph 83% 0.00 in
07:39 32.9 °F 28.3 °F 30.16 in SW 5.0 mph 10.0 mph 83% 0.00 in
07:44 33.0 °F 28.4 °F 30.16 in SSW 9.0 mph 11.0 mph 83% 0.00 in
07:49 33.1 °F 28.5 °F 30.16 in West 5.0 mph 10.0 mph 83% 0.00 in
07:54 33.2 °F 28.6 °F 30.17 in WSW 5.0 mph 12.0 mph 83% 0.00 in
07:59 33.4 °F 28.8 °F 30.17 in WSW 6.0 mph 12.0 mph 83% 0.00 in
08:04 33.5 °F 28.9 °F 30.17 in WNW 6.0 mph 11.0 mph 83% 0.00 in
08:09 33.7 °F 28.8 °F 30.18 in SW 5.0 mph 12.0 mph 82% 0.00 in
08:14 33.9 °F 29.0 °F 30.18 in WSW 6.0 mph 12.0 mph 82% 0.00 in
08:19 34.3 °F 29.4 °F 30.18 in WSW 6.0 mph 12.0 mph 82% 0.00 in
08:24 34.5 °F 29.3 °F 30.18 in WSW 5.0 mph 9.0 mph 81% 0.00 in
08:29 34.6 °F 29.4 °F 30.19 in SW 10.0 mph 10.0 mph 81% 0.00 in
08:34 34.9 °F 29.7 °F 30.19 in WSW 6.0 mph 10.0 mph 81% 0.00 in
08:39 35.0 °F 29.5 °F 30.19 in WSW 7.0 mph 13.0 mph 80% 0.00 in
08:44 35.1 °F 29.6 °F 30.19 in SSW 4.0 mph 12.0 mph 80% 0.00 in
08:49 35.4 °F 29.8 °F 30.19 in SW 5.0 mph 12.0 mph 80% 0.00 in
08:54 35.5 °F 29.9 °F 30.20 in SW 6.0 mph 13.0 mph 80% 0.00 in
08:59 35.5 °F 29.9 °F 30.20 in WSW 6.0 mph 13.0 mph 80% 0.00 in
09:04 35.8 °F 29.9 °F 30.20 in WSW 8.0 mph 13.0 mph 79% 0.00 in
09:09 35.9 °F 30.0 °F 30.20 in SW 5.0 mph 13.0 mph 79% 0.00 in
09:14 36.0 °F 30.1 °F 30.20 in West 5.0 mph 13.0 mph 79% 0.00 in
09:19 36.2 °F 30.3 °F 30.20 in WSW 7.0 mph 15.0 mph 79% 0.00 in
09:24 36.5 °F 30.6 °F 30.20 in WSW 7.0 mph 15.0 mph 79% 0.00 in
09:29 36.4 °F 30.2 °F 30.20 in WSW 8.0 mph 16.0 mph 78% 0.00 in
09:34 37.0 °F 30.8 °F 30.21 in WSW 7.0 mph 16.0 mph 78% 0.00 in
09:39 37.4 °F 31.2 °F 30.20 in WSW 6.0 mph 15.0 mph 78% 0.00 in
09:44 37.5 °F 30.9 °F 30.20 in WSW 5.0 mph 14.0 mph 77% 0.00 in
09:49 37.6 °F 30.7 °F 30.20 in WSW 7.0 mph 15.0 mph 76% 0.00 in
09:54 38.2 °F 31.3 °F 30.20 in WSW 5.0 mph 11.0 mph 76% 0.00 in
09:59 38.1 °F 30.9 °F 30.21 in WSW 6.0 mph 13.0 mph 75% 0.00 in
10:04 38.3 °F 31.4 °F 30.21 in WSW 7.0 mph 14.0 mph 76% 0.00 in
10:09 38.8 °F 31.6 °F 30.21 in WSW 6.0 mph 14.0 mph 75% 0.00 in
10:14 38.5 °F 30.9 °F 30.21 in West 4.0 mph 13.0 mph 74% 0.00 in
10:19 39.1 °F 31.5 °F 30.21 in WSW 7.0 mph 13.0 mph 74% 0.00 in
10:24 39.2 °F 31.3 °F 30.21 in WSW 6.0 mph 14.0 mph 73% 0.00 in
10:29 39.2 °F 31.6 °F 30.21 in WSW 7.0 mph 14.0 mph 74% 0.00 in
10:34 39.9 °F 31.9 °F 30.21 in WSW 7.0 mph 13.0 mph 73% 0.00 in
10:39 39.8 °F 31.8 °F 30.21 in WSW 13.0 mph 14.0 mph 73% 0.00 in
10:44 39.5 °F 31.2 °F 30.22 in WSW 6.0 mph 14.0 mph 72% 0.00 in
10:49 39.7 °F 31.4 °F 30.22 in WSW 9.0 mph 14.0 mph 72% 0.00 in
10:54 39.8 °F 31.5 °F 30.22 in WSW 10.0 mph 13.0 mph 72% 0.00 in
10:59 40.0 °F 32.0 °F 30.22 in WSW 8.0 mph 13.0 mph 73% 0.00 in
11:04 40.2 °F 31.9 °F 30.22 in WSW 8.0 mph 15.0 mph 72% 0.00 in
11:09 40.0 °F 31.7 °F 30.22 in West 7.0 mph 15.0 mph 72% 0.00 in
11:14 40.2 °F 31.5 °F 30.22 in West 6.0 mph 17.0 mph 71% 0.00 in
11:19 40.4 °F 32.1 °F 30.22 in WSW 8.0 mph 17.0 mph 72% 0.00 in
11:24 40.7 °F 32.4 °F 30.22 in WSW 7.0 mph 13.0 mph 72% 0.00 in
11:29 40.2 °F 31.9 °F 30.22 in SW 8.0 mph 16.0 mph 72% 0.00 in
11:34 40.2 °F 31.9 °F 30.22 in SW 9.0 mph 17.0 mph 72% 0.00 in
11:39 40.3 °F 32.0 °F 30.22 in WSW 9.0 mph 17.0 mph 72% 0.00 in
11:44 40.4 °F 31.7 °F 30.22 in West 12.0 mph 18.0 mph 71% 0.00 in
11:49 39.8 °F 31.2 °F 30.23 in SSW 8.0 mph 20.0 mph 71% 0.00 in
11:54 40.0 °F 31.7 °F 30.23 in SW 10.0 mph 20.0 mph 72% 0.00 in
11:59 40.3 °F 31.6 °F 30.23 in SW 13.0 mph 16.0 mph 71% 0.00 in
12:04 40.2 °F 31.2 °F 30.22 in West 12.0 mph 17.0 mph 70% 0.00 in
12:09 40.3 °F 31.6 °F 30.23 in SSW 6.0 mph 16.0 mph 71% 0.00 in
12:14 40.6 °F 31.9 °F 30.22 in West 6.0 mph 14.0 mph 71% 0.00 in
12:19 40.6 °F 31.9 °F 30.23 in WSW 8.0 mph 14.0 mph 71% 0.00 in
12:24 40.2 °F 31.5 °F 30.23 in SW 8.0 mph 15.0 mph 71% 0.00 in
12:29 40.0 °F 31.7 °F 30.23 in SW 9.0 mph 17.0 mph 72% 0.00 in
12:34 39.7 °F 31.4 °F 30.23 in WSW 10.0 mph 17.0 mph 72% 0.00 in
12:39 40.2 °F 32.6 °F 30.23 in WSW 9.0 mph 17.0 mph 74% 0.00 in
12:44 39.9 °F 31.6 °F 30.23 in West 15.0 mph 17.0 mph 72% 0.00 in
12:49 40.0 °F 31.7 °F 30.23 in WSW 9.0 mph 17.0 mph 72% 0.00 in
12:54 40.3 °F 31.6 °F 30.23 in WSW 12.0 mph 16.0 mph 71% 0.00 in
12:59 40.5 °F 31.8 °F 30.23 in WSW 8.0 mph 16.0 mph 71% 0.00 in
13:04 40.4 °F 31.7 °F 30.23 in WSW 9.0 mph 16.0 mph 71% 0.00 in
13:09 40.2 °F 31.2 °F 30.23 in WSW 9.0 mph 16.0 mph 70% 0.00 in
13:14 40.6 °F 31.9 °F 30.23 in SSW 7.0 mph 16.0 mph 71% 0.00 in
13:19 40.6 °F 31.6 °F 30.23 in SW 7.0 mph 17.0 mph 70% 0.00 in
13:24 40.6 °F 31.6 °F 30.23 in South 5.0 mph 16.0 mph 70% 0.00 in
13:29 40.8 °F 31.8 °F 30.23 in West 8.0 mph 14.0 mph 70% 0.00 in
13:34 40.6 °F 31.9 °F 30.23 in SW 8.0 mph 15.0 mph 71% 0.00 in
13:39 40.2 °F 31.5 °F 30.24 in SW 9.0 mph 15.0 mph 71% 0.00 in
13:44 40.2 °F 31.2 °F 30.24 in SW 9.0 mph 15.0 mph 70% 0.00 in
13:49 40.3 °F 31.6 °F 30.24 in SW 9.0 mph 18.0 mph 71% 0.00 in
13:54 40.5 °F 31.8 °F 30.24 in West 16.0 mph 19.0 mph 71% 0.00 in
13:59 39.9 °F 30.9 °F 30.24 in SW 10.0 mph 18.0 mph 70% 0.00 in
14:04 40.1 °F 31.1 °F 30.24 in WSW 10.0 mph 15.0 mph 70% 0.00 in
14:09 40.2 °F 30.8 °F 30.24 in WSW 9.0 mph 16.0 mph 69% 0.00 in
14:14 40.5 °F 31.1 °F 30.24 in WSW 9.0 mph 16.0 mph 69% 0.00 in
14:19 40.2 °F 30.8 °F 30.24 in WSW 11.0 mph 17.0 mph 69% 0.00 in
14:24 40.1 °F 30.4 °F 30.24 in SW 10.0 mph 18.0 mph 68% 0.00 in
14:29 40.3 °F 30.6 °F 30.23 in SW 3.0 mph 17.0 mph 68% 0.00 in
14:34 40.0 °F 30.3 °F 30.24 in SW 12.0 mph 18.0 mph 68% 0.00 in
14:39 39.8 °F 29.7 °F 30.24 in SW 5.0 mph 18.0 mph 67% 0.00 in
14:44 39.9 °F 29.8 °F 30.24 in WSW 10.0 mph 18.0 mph 67% 0.00 in
14:49 40.3 °F 30.9 °F 30.24 in WSW 9.0 mph 14.0 mph 69% 0.00 in
14:54 40.2 °F 30.1 °F 30.24 in WSW 9.0 mph 15.0 mph 67% 0.00 in
14:59 40.1 °F 30.4 °F 30.24 in WSW 9.0 mph 20.0 mph 68% 0.00 in
15:04 39.9 °F 30.2 °F 30.24 in SW 9.0 mph 20.0 mph 68% 0.00 in
15:09 40.2 °F 30.5 °F 30.24 in SSW 6.0 mph 14.0 mph 68% 0.00 in
15:14 40.2 °F 29.7 °F 30.24 in SW 8.0 mph 19.0 mph 66% 0.00 in
15:24 39.3 °F 30.0 °F 30.25 in WSW 8.0 mph 19.0 mph 69% 0.00 in
15:29 39.3 °F 30.0 °F 30.25 in West 10.0 mph 20.0 mph 69% 0.00 in
15:34 39.3 °F 30.3 °F 30.25 in West 5.0 mph 14.0 mph 70% 0.00 in
15:39 39.1 °F 30.1 °F 30.25 in WSW 12.0 mph 17.0 mph 70% 0.00 in
15:44 38.8 °F 30.2 °F 30.25 in SSW 6.0 mph 16.0 mph 71% 0.00 in
15:49 38.8 °F 29.8 °F 30.25 in SW 9.0 mph 16.0 mph 70% 0.00 in
15:54 38.6 °F 29.7 °F 30.25 in WSW 8.0 mph 16.0 mph 70% 0.00 in
16:04 38.6 °F 30.0 °F 30.25 in SW 8.0 mph 15.0 mph 71% 0.00 in
16:09 38.4 °F 29.8 °F 30.25 in SW 8.0 mph 14.0 mph 71% 0.00 in
16:14 38.3 °F 29.7 °F 30.25 in SW 8.0 mph 14.0 mph 71% 0.00 in
16:19 38.5 °F 29.6 °F 30.25 in WSW 9.0 mph 16.0 mph 70% 0.00 in
16:24 38.0 °F 29.4 °F 30.25 in SW 8.0 mph 16.0 mph 71% 0.00 in
16:29 37.7 °F 29.1 °F 30.25 in SW 11.0 mph 18.0 mph 71% 0.00 in
16:34 37.7 °F 29.1 °F 30.25 in SSW 7.0 mph 14.0 mph 71% 0.00 in
16:44 37.1 °F 28.9 °F 30.25 in SW 4.0 mph 15.0 mph 72% 0.00 in
16:49 37.2 °F 29.3 °F 30.26 in WSW 3.0 mph 9.0 mph 73% 0.00 in
16:54 37.2 °F 29.3 °F 30.26 in WSW 7.0 mph 11.0 mph 73% 0.00 in
16:59 36.7 °F 28.9 °F 30.26 in WSW 7.0 mph 16.0 mph 73% 0.00 in
17:04 36.4 °F 28.6 °F 30.26 in WSW 9.0 mph 16.0 mph 73% 0.00 in
17:09 36.2 °F 28.4 °F 30.26 in SW 9.0 mph 14.0 mph 73% 0.00 in
17:14 36.1 °F 28.6 °F 30.26 in SW 8.0 mph 14.0 mph 74% 0.00 in
17:19 35.9 °F 28.4 °F 30.26 in SW 6.0 mph 16.0 mph 74% 0.00 in
17:24 35.8 °F 28.6 °F 30.26 in SW 9.0 mph 13.0 mph 75% 0.00 in
17:29 35.6 °F 28.5 °F 30.26 in SW 7.0 mph 15.0 mph 75% 0.00 in
17:34 35.5 °F 28.4 °F 30.26 in WSW 8.0 mph 18.0 mph 75% 0.00 in
17:39 35.3 °F 28.2 °F 30.27 in SW 9.0 mph 18.0 mph 75% 0.00 in
17:44 35.1 °F 28.0 °F 30.26 in West 8.0 mph 13.0 mph 75% 0.00 in
17:49 34.9 °F 27.8 °F 30.26 in WSW 8.0 mph 13.0 mph 75% 0.00 in
17:54 34.7 °F 27.6 °F 30.27 in SW 4.0 mph 16.0 mph 75% 0.00 in
17:59 34.6 °F 27.8 °F 30.27 in SSW 4.0 mph 10.0 mph 76% 0.00 in
18:04 34.4 °F 27.6 °F 30.27 in WSW 2.0 mph 9.0 mph 76% 0.00 in
18:09 34.3 °F 27.5 °F 30.27 in WSW 5.0 mph 13.0 mph 76% 0.00 in
18:14 34.1 °F 27.3 °F 30.27 in SW 5.0 mph 13.0 mph 76% 0.00 in
18:19 34.0 °F 27.2 °F 30.27 in SW 5.0 mph 9.0 mph 76% 0.00 in
18:24 34.0 °F 27.5 °F 30.28 in WSW 5.0 mph 9.0 mph 77% 0.00 in
18:29 33.9 °F 27.4 °F 30.28 in WSW 5.0 mph 10.0 mph 77% 0.00 in
18:34 33.8 °F 27.4 °F 30.28 in WSW 5.0 mph 10.0 mph 77% 0.00 in
18:39 33.6 °F 27.2 °F 30.28 in SW 4.0 mph 9.0 mph 77% 0.00 in
18:44 33.6 °F 27.2 °F 30.28 in WSW 4.0 mph 9.0 mph 77% 0.00 in
18:49 33.7 °F 27.3 °F 30.28 in West 3.0 mph 10.0 mph 77% 0.00 in
18:54 33.7 °F 27.3 °F 30.28 in SW 3.0 mph 10.0 mph 77% 0.00 in
18:59 33.5 °F 27.1 °F 30.28 in SW 4.0 mph 10.0 mph 77% 0.00 in
19:04 33.5 °F 27.1 °F 30.28 in SW 6.0 mph 10.0 mph 77% 0.00 in
19:09 33.3 °F 27.2 °F 30.28 in SW 8.0 mph 9.0 mph 78% 0.00 in
19:14 33.2 °F 27.1 °F 30.29 in SW 4.0 mph 9.0 mph 78% 0.00 in
19:19 33.2 °F 27.1 °F 30.29 in SW 5.0 mph 9.0 mph 78% 0.00 in
19:24 33.0 °F 27.2 °F 30.29 in SW 4.0 mph 8.0 mph 79% 0.00 in
19:29 32.9 °F 27.1 °F 30.29 in SW 5.0 mph 9.0 mph 79% 0.00 in
19:34 32.8 °F 27.0 °F 30.29 in SW 4.0 mph 9.0 mph 79% 0.00 in
19:39 32.7 °F 26.9 °F 30.29 in SW 4.0 mph 8.0 mph 79% 0.00 in
19:44 32.7 °F 26.9 °F 30.29 in SW 4.0 mph 8.0 mph 79% 0.00 in
19:49 32.6 °F 27.1 °F 30.29 in SW 4.0 mph 7.0 mph 80% 0.00 in
19:54 32.6 °F 27.1 °F 30.29 in SW 4.0 mph 9.0 mph 80% 0.00 in
19:59 32.5 °F 27.0 °F 30.29 in SW 4.0 mph 9.0 mph 80% 0.00 in
20:04 32.5 °F 27.0 °F 30.30 in SW 5.0 mph 8.0 mph 80% 0.00 in
20:09 32.5 °F 27.0 °F 30.29 in SW 4.0 mph 8.0 mph 80% 0.00 in
20:14 32.4 °F 26.9 °F 30.30 in SSW 4.0 mph 8.0 mph 80% 0.00 in
20:19 32.4 °F 26.9 °F 30.30 in SW 4.0 mph 8.0 mph 80% 0.00 in
20:24 32.4 °F 26.9 °F 30.30 in SW 3.0 mph 7.0 mph 80% 0.00 in
20:29 32.3 °F 26.8 °F 30.30 in SW 4.0 mph 8.0 mph 80% 0.00 in
20:34 32.3 °F 26.8 °F 30.30 in SW 4.0 mph 8.0 mph 80% 0.00 in
20:39 32.3 °F 26.8 °F 30.30 in SW 4.0 mph 7.0 mph 80% 0.00 in
20:44 32.2 °F 26.7 °F 30.30 in SW 3.0 mph 6.0 mph 80% 0.00 in
20:49 32.2 °F 26.7 °F 30.31 in SW 3.0 mph 8.0 mph 80% 0.00 in
20:54 32.1 °F 26.6 °F 30.31 in SW 3.0 mph 8.0 mph 80% 0.00 in
20:59 32.1 °F 26.6 °F 30.31 in SW 3.0 mph 6.0 mph 80% 0.00 in
21:04 32.0 °F 26.5 °F 30.31 in SW 4.0 mph 6.0 mph 80% 0.00 in
21:09 32.0 °F 26.5 °F 30.31 in SW 2.0 mph 6.0 mph 80% 0.00 in
21:14 32.0 °F 26.5 °F 30.31 in SW 3.0 mph 6.0 mph 80% 0.00 in
21:19 31.9 °F 26.7 °F 30.31 in SW 4.0 mph 6.0 mph 81% 0.00 in
21:24 31.9 °F 26.7 °F 30.31 in SW 2.0 mph 7.0 mph 81% 0.00 in
21:29 31.8 °F 26.6 °F 30.31 in SW 3.0 mph 7.0 mph 81% 0.00 in
21:34 31.9 °F 26.7 °F 30.31 in SW 1.0 mph 6.0 mph 81% 0.00 in
21:39 31.8 °F 26.6 °F 30.31 in SW 3.0 mph 6.0 mph 81% 0.00 in
21:44 31.7 °F 26.5 °F 30.31 in SW 3.0 mph 6.0 mph 81% 0.00 in
21:49 31.7 °F 26.5 °F 30.31 in SW 3.0 mph 6.0 mph 81% 0.00 in
21:54 31.7 °F 26.5 °F 30.31 in SW 3.0 mph 6.0 mph 81% 0.00 in
21:59 31.6 °F 26.4 °F 30.31 in SW 3.0 mph 5.0 mph 81% 0.00 in
22:04 31.6 °F 26.4 °F 30.31 in SW 2.0 mph 4.0 mph 81% 0.00 in
22:09 31.6 °F 26.4 °F 30.31 in SW 1.0 mph 5.0 mph 81% 0.00 in
22:14 31.5 °F 26.3 °F 30.31 in SW 2.0 mph 5.0 mph 81% 0.00 in
22:19 31.4 °F 26.2 °F 30.31 in SW 2.0 mph 5.0 mph 81% 0.00 in
22:24 31.5 °F 26.3 °F 30.32 in SW 2.0 mph 5.0 mph 81% 0.00 in
22:29 31.5 °F 26.0 °F 30.31 in SW 4.0 mph 6.0 mph 80% 0.00 in
22:34 31.6 °F 26.1 °F 30.32 in SW 2.0 mph 4.0 mph 80% 0.00 in
22:39 31.6 °F 26.1 °F 30.32 in SW 1.0 mph 5.0 mph 80% 0.00 in
22:44 31.5 °F 26.0 °F 30.31 in Calm   5.0 mph 80% 0.00 in
22:49 31.4 °F 25.9 °F 30.32 in SW 1.0 mph 4.0 mph 80% 0.00 in
22:54 31.4 °F 25.9 °F 30.32 in SW 2.0 mph 4.0 mph 80% 0.00 in
22:59 31.7 °F 26.2 °F 30.32 in SW 2.0 mph 7.0 mph 80% 0.00 in
23:04 31.7 °F 26.2 °F 30.32 in SW 3.0 mph 5.0 mph 80% 0.00 in
23:09 31.7 °F 26.2 °F 30.32 in SW 1.0 mph 5.0 mph 80% 0.00 in
23:14 31.7 °F 26.2 °F 30.32 in SW 1.0 mph 6.0 mph 80% 0.00 in
23:19 31.7 °F 26.2 °F 30.32 in SW 2.0 mph 6.0 mph 80% 0.00 in
23:24 31.6 °F 25.8 °F 30.32 in SSW 1.0 mph 4.0 mph 79% 0.00 in
23:29 31.5 °F 25.7 °F 30.32 in SSW 2.0 mph 4.0 mph 79% 0.00 in
23:34 31.3 °F 25.5 °F 30.32 in SW 1.0 mph 3.0 mph 79% 0.00 in
23:39 31.1 °F 25.7 °F 30.32 in SW 2.0 mph 4.0 mph 80% 0.00 in
23:44 31.1 °F 25.7 °F 30.32 in SW 1.0 mph 4.0 mph 80% 0.00 in
23:49 31.0 °F 25.2 °F 30.32 in SW 2.0 mph 3.0 mph 79% 0.00 in
23:54 30.8 °F 25.1 °F 30.32 in SW 1.0 mph 3.0 mph 79% 0.00 in
23:59 30.8 °F 25.1 °F 30.32 in SW 1.0 mph 3.0 mph 79% 0.00 in
Buffalo, New York, USA
Compliments of Weather Underground - 2.5 mb